createdAt,value
2018-01-08T00:01:54.953Z,7.67
2018-01-08T00:03:57.628Z,7.93
2018-01-08T00:06:00.264Z,7.43
2018-01-08T00:08:02.915Z,7.33
2018-01-08T00:10:05.568Z,7.67
2018-01-08T00:12:08.329Z,7.60
2018-01-08T00:14:11.788Z,8.20
2018-01-08T00:16:14.432Z,7.10
2018-01-08T00:18:17.088Z,7.77
2018-01-08T00:20:19.767Z,7.03
2018-01-08T00:22:22.413Z,7.87
2018-01-08T00:24:25.830Z,8.23
2018-01-08T00:26:28.508Z,7.87
2018-01-08T00:28:31.168Z,7.33
2018-01-08T00:30:34.614Z,7.70
2018-01-08T00:32:37.271Z,7.70
2018-01-08T00:34:39.923Z,7.90
2018-01-08T00:36:42.594Z,8.10
2018-01-08T00:38:46.015Z,8.33
2018-01-08T00:40:48.681Z,7.97
2018-01-08T00:42:51.384Z,9.00
2018-01-08T00:44:54.028Z,7.37
2018-01-08T00:46:56.711Z,8.67
2018-01-08T00:48:59.369Z,8.30
2018-01-08T00:51:02.058Z,8.30
2018-01-08T00:53:04.794Z,8.33
2018-01-08T00:55:07.455Z,8.50
2018-01-08T00:57:10.123Z,7.60
2018-01-08T00:59:12.818Z,8.10
2018-01-08T01:01:15.507Z,9.57
2018-01-08T01:03:18.932Z,8.30
2018-01-08T01:05:21.643Z,8.37
2018-01-08T01:07:24.322Z,8.30
2018-01-08T01:09:26.979Z,8.37
2018-01-08T01:11:29.631Z,8.37
2018-01-08T01:13:32.302Z,8.53
2018-01-08T01:15:34.946Z,8.10
2018-01-08T01:17:37.618Z,9.20
2018-01-08T01:19:40.280Z,9.13
2018-01-08T01:21:44.029Z,9.07
2018-01-08T01:23:46.714Z,8.50
2018-01-08T01:25:49.357Z,8.70
2018-01-08T01:27:52.138Z,8.63
2018-01-08T01:29:54.790Z,7.30
2018-01-08T01:31:57.480Z,8.63
2018-01-08T01:34:00.130Z,8.73
2018-01-08T01:36:02.794Z,8.63
2018-01-08T01:38:05.448Z,8.47
2018-01-08T01:40:08.110Z,8.37
2018-01-08T01:42:11.534Z,8.87
2018-01-08T01:44:14.223Z,9.00
2018-01-08T01:46:16.890Z,9.53
2018-01-08T01:48:19.552Z,8.20
2018-01-08T01:50:22.196Z,9.00
2018-01-08T01:52:25.654Z,8.67
2018-01-08T01:54:28.326Z,8.50
2018-01-08T01:56:30.981Z,8.90
2018-01-08T01:58:33.624Z,9.27
2018-01-08T02:00:37.066Z,9.20
2018-01-08T02:02:39.726Z,9.90
2018-01-08T02:04:42.374Z,8.40
2018-01-08T02:06:45.804Z,9.80
2018-01-08T02:08:48.448Z,8.87
2018-01-08T02:10:51.886Z,9.47
2018-01-08T02:12:54.560Z,9.30
2018-01-08T02:14:57.195Z,9.20
2018-01-08T02:16:59.873Z,8.23
2018-01-08T02:19:02.533Z,8.50
2018-01-08T02:21:05.961Z,9.97
2018-01-08T02:23:08.646Z,9.60
2018-01-08T02:25:11.300Z,9.77
2018-01-08T02:27:14.018Z,8.73
2018-01-08T02:29:16.689Z,9.57
2018-01-08T02:31:19.320Z,9.47
2018-01-08T02:33:21.986Z,8.50
2018-01-08T02:35:25.392Z,9.30
2018-01-08T02:37:28.059Z,9.30
2018-01-08T02:39:31.499Z,10.03
2018-01-08T02:41:34.167Z,9.50
2018-01-08T02:43:36.823Z,9.67
2018-01-08T02:45:39.497Z,9.43
2018-01-08T02:47:42.151Z,9.27
2018-01-08T02:49:45.588Z,8.90
2018-01-08T02:51:48.253Z,9.07
2018-01-08T02:53:50.906Z,9.43
2018-01-08T02:55:53.591Z,9.53
2018-01-08T02:57:56.260Z,9.33
2018-01-08T02:59:58.932Z,9.53
2018-01-08T03:02:02.341Z,8.90
2018-01-08T03:04:04.999Z,8.83
2018-01-08T03:06:08.436Z,9.37
2018-01-08T03:08:11.095Z,8.90
2018-01-08T03:10:13.771Z,9.70
2018-01-08T03:12:16.438Z,8.80
2018-01-08T03:14:19.134Z,9.23
2018-01-08T03:16:21.814Z,8.30
2018-01-08T03:18:24.453Z,8.07
2018-01-08T03:20:27.880Z,8.60
2018-01-08T03:22:30.647Z,9.10
2018-01-08T03:24:33.290Z,9.03
2018-01-08T03:26:36.715Z,9.10
2018-01-08T03:28:39.391Z,10.10
2018-01-08T03:30:42.058Z,9.40
2018-01-08T03:32:44.739Z,8.67
2018-01-08T03:34:47.393Z,8.60
2018-01-08T03:36:50.894Z,9.67
2018-01-08T03:38:54.335Z,8.63
2018-01-08T03:40:56.989Z,9.53
2018-01-08T03:42:59.673Z,8.93
2018-01-08T03:45:02.339Z,9.03
2018-01-08T03:47:05.002Z,8.80
2018-01-08T03:49:07.684Z,9.43
2018-01-08T03:51:10.502Z,9.53
2018-01-08T03:53:13.174Z,8.50
2018-01-08T03:55:15.880Z,9.50
2018-01-08T03:57:19.302Z,9.87
2018-01-08T03:59:22.715Z,9.10
2018-01-08T04:01:25.390Z,9.93
2018-01-08T04:03:28.056Z,9.03
2018-01-08T04:05:30.728Z,9.20
2018-01-08T04:07:33.487Z,9.00
2018-01-08T04:09:36.908Z,9.63
2018-01-08T04:11:39.643Z,10.00
2018-01-08T04:13:42.331Z,9.93
2018-01-08T04:15:45.805Z,10.30
2018-01-08T04:17:48.469Z,9.67
2018-01-08T04:19:51.144Z,10.50
2018-01-08T04:21:53.820Z,9.43
2018-01-08T04:23:57.282Z,10.70
2018-01-08T04:25:59.996Z,10.53
2018-01-08T04:28:02.833Z,9.23
2018-01-08T04:30:05.507Z,9.97
2018-01-08T04:32:08.152Z,10.70
2018-01-08T04:34:11.606Z,10.17
2018-01-08T04:36:14.386Z,10.07
2018-01-08T04:38:17.062Z,10.23
2018-01-08T04:40:19.718Z,9.80
2018-01-08T04:42:22.382Z,10.80
2018-01-08T04:44:25.063Z,10.23
2018-01-08T04:46:27.740Z,9.90
2018-01-08T04:48:30.384Z,10.20
2018-01-08T04:50:33.844Z,11.10
2018-01-08T04:52:36.531Z,10.23
2018-01-08T04:54:39.190Z,10.30
2018-01-08T04:56:41.844Z,9.43
2018-01-08T04:58:44.523Z,10.57
2018-01-08T05:00:47.172Z,10.67
2018-01-08T05:02:49.840Z,10.20
2018-01-08T05:04:53.273Z,11.00
2018-01-08T05:06:55.919Z,11.03
2018-01-08T05:08:58.593Z,10.73
2018-01-08T05:11:01.247Z,9.47
2018-01-08T05:13:04.662Z,10.97
2018-01-08T05:15:07.332Z,10.30
2018-01-08T05:17:10.784Z,11.17
2018-01-08T05:19:13.442Z,10.53
2018-01-08T05:21:16.123Z,9.43
2018-01-08T05:23:18.764Z,9.40
2018-01-08T05:25:21.408Z,11.17
2018-01-08T05:27:24.080Z,10.17
2018-01-08T05:29:26.742Z,10.40
2018-01-08T05:31:29.373Z,9.87
2018-01-08T05:33:32.100Z,10.83
2018-01-08T05:35:34.758Z,9.63
2018-01-08T05:37:37.646Z,10.30
2018-01-08T05:39:40.333Z,10.40
2018-01-08T05:41:43.066Z,10.63
2018-01-08T05:43:45.744Z,11.07
2018-01-08T05:45:48.385Z,11.60
2018-01-08T05:47:51.838Z,10.60
2018-01-08T05:49:54.499Z,11.57
2018-01-08T05:51:57.160Z,12.00
2018-01-08T05:56:28.408Z,10.10
2018-01-08T05:58:31.046Z,9.97
2018-01-08T06:00:33.776Z,10.13
2018-01-08T06:02:36.425Z,10.43
2018-01-08T06:04:39.859Z,11.10
2018-01-08T06:06:42.528Z,10.00
2018-01-08T06:08:45.210Z,11.60
2018-01-08T06:10:47.861Z,10.50
2018-01-08T06:12:50.544Z,9.70
2018-01-08T06:14:53.218Z,10.60
2018-01-08T06:16:55.887Z,9.70
2018-01-08T06:18:58.538Z,9.97
2018-01-08T06:21:01.208Z,9.77
2018-01-08T06:23:03.887Z,10.40
2018-01-08T06:25:06.563Z,11.13
2018-01-08T06:27:09.221Z,10.63
2018-01-08T06:29:11.871Z,10.10
2018-01-08T06:31:14.519Z,10.63
2018-01-08T06:33:17.182Z,10.87
2018-01-08T06:35:20.611Z,11.10
2018-01-08T06:37:23.258Z,10.10
2018-01-08T06:39:25.929Z,10.90
2018-01-08T06:41:29.450Z,10.47
2018-01-08T06:43:32.735Z,9.93
2018-01-08T06:45:35.426Z,11.03
2018-01-08T06:47:38.063Z,10.00
2018-01-08T06:49:41.514Z,10.60
2018-01-08T06:51:44.472Z,9.20
2018-01-08T06:53:47.960Z,10.90
2018-01-08T06:55:51.042Z,10.67
2018-01-08T06:57:53.703Z,9.70
2018-01-08T06:59:57.129Z,9.70
2018-01-08T07:01:59.791Z,11.30
2018-01-08T07:04:02.447Z,11.10
2018-01-08T07:06:05.945Z,10.57
2018-01-08T07:08:09.355Z,10.90
2018-01-08T07:10:12.137Z,10.43
2018-01-08T07:12:14.825Z,10.67
2018-01-08T07:14:17.496Z,10.00
2018-01-08T07:16:20.165Z,11.53
2018-01-08T07:18:22.812Z,10.43
2018-01-08T07:20:26.266Z,10.70
2018-01-08T07:22:29.710Z,10.17
2018-01-08T07:24:33.142Z,10.73
2018-01-08T07:26:35.803Z,10.30
2018-01-08T07:28:38.500Z,10.60
2018-01-08T07:30:41.951Z,11.70
2018-01-08T07:32:45.183Z,11.20
2018-01-08T07:34:47.834Z,10.23
2018-01-08T07:36:50.538Z,10.63
2018-01-08T07:38:53.184Z,10.80
2018-01-08T07:40:55.823Z,11.37
2018-01-08T07:42:58.485Z,11.47
2018-01-08T07:45:01.309Z,10.90
2018-01-08T07:47:04.225Z,11.07
2018-01-08T07:49:07.102Z,9.73
2018-01-08T07:51:09.758Z,11.00
2018-01-08T07:53:12.429Z,9.97
2018-01-08T07:55:15.082Z,11.80
2018-01-08T07:57:17.828Z,11.10
2018-01-08T07:59:20.561Z,11.43
2018-01-08T08:01:23.297Z,10.63
2018-01-08T08:03:26.107Z,11.30
2018-01-08T08:05:28.778Z,10.43
2018-01-08T08:07:31.435Z,11.53
2018-01-08T08:09:34.110Z,11.33
2018-01-08T08:11:36.756Z,9.93
2018-01-08T08:13:39.387Z,10.33
2018-01-08T08:15:42.066Z,11.33
2018-01-08T08:17:45.482Z,10.50
2018-01-08T08:19:48.192Z,11.17
2018-01-08T08:21:50.819Z,10.33
2018-01-08T08:23:54.199Z,9.57
2018-01-08T08:25:57.745Z,12.00
2018-01-08T08:28:10.304Z,10.77
2018-01-08T08:30:13.713Z,11.60
2018-01-08T08:32:16.486Z,10.40
2018-01-08T08:34:19.901Z,9.27
2018-01-08T08:36:22.581Z,9.83
2018-01-08T08:38:25.609Z,11.10
2018-01-08T08:43:00.541Z,9.50
2018-01-08T08:45:03.206Z,10.40
2018-01-08T08:47:05.861Z,9.90
2018-01-08T08:49:08.549Z,10.90
2018-01-08T08:51:11.224Z,9.90
2018-01-08T08:53:13.888Z,10.10
2018-01-08T08:55:16.556Z,10.43
2018-01-08T08:57:19.229Z,10.50
2018-01-08T08:59:21.879Z,10.43
2018-01-08T09:01:24.558Z,10.60
2018-01-08T09:03:27.201Z,10.40
2018-01-08T09:05:29.841Z,11.80
2018-01-08T09:07:32.585Z,10.40
2018-01-08T09:09:35.198Z,11.70
2018-01-08T09:11:37.877Z,11.43
2018-01-08T09:13:40.536Z,10.40
2018-01-08T09:15:43.181Z,10.63
2018-01-08T09:17:46.712Z,10.90
2018-01-08T09:19:49.363Z,11.20
2018-01-08T09:21:52.366Z,10.53
2018-01-08T09:23:55.096Z,11.40
2018-01-08T09:25:58.591Z,11.33
2018-01-08T09:28:01.438Z,11.53
2018-01-08T09:30:04.124Z,12.87
2018-01-08T09:32:06.802Z,11.83
2018-01-08T09:34:09.471Z,11.33
2018-01-08T09:36:12.130Z,11.67
2018-01-08T09:38:14.812Z,11.53
2018-01-08T09:40:17.460Z,12.00
2018-01-08T09:42:20.136Z,10.67
2018-01-08T09:44:24.151Z,11.23
2018-01-08T09:46:26.868Z,11.83
2018-01-08T09:48:29.563Z,11.07
2018-01-08T09:50:32.372Z,12.00
2018-01-08T09:52:35.102Z,10.80
2018-01-08T09:54:37.769Z,11.60
2018-01-08T09:56:40.763Z,11.67
2018-01-08T09:58:43.642Z,11.43
2018-01-08T10:00:47.206Z,12.87
2018-01-08T10:03:01.659Z,11.20
2018-01-08T10:05:16.371Z,10.97
2018-01-08T10:07:30.974Z,11.10
2018-01-08T10:09:45.616Z,11.73
2018-01-08T10:12:00.305Z,11.90
2018-01-08T10:14:14.919Z,12.20
2018-01-08T10:16:29.525Z,11.40
2018-01-08T10:18:32.440Z,11.27
2018-01-08T10:20:35.844Z,11.97
2018-01-08T10:22:39.287Z,11.90
2018-01-08T10:24:41.969Z,12.13
2018-01-08T10:26:44.689Z,11.90
2018-01-08T10:28:48.137Z,11.87
2018-01-08T10:30:50.914Z,10.70
2018-01-08T10:32:53.640Z,11.13
2018-01-08T10:34:57.104Z,11.10
2018-01-08T10:36:59.873Z,11.13
2018-01-08T10:39:02.551Z,11.90
2018-01-08T10:41:05.510Z,11.10
2018-01-08T10:43:14.002Z,11.30
2018-01-08T10:45:22.512Z,11.63
2018-01-08T10:47:30.852Z,11.67
2018-01-08T10:49:39.166Z,11.50
2018-01-08T10:51:41.366Z,11.50
2018-01-08T10:53:44.080Z,11.73
2018-01-08T10:55:47.196Z,10.60
2018-01-08T10:57:50.234Z,10.77
2018-01-08T10:59:52.928Z,11.20
2018-01-08T11:02:01.488Z,12.13
2018-01-08T11:04:04.973Z,10.50
2018-01-08T11:06:07.667Z,10.67
2018-01-08T11:08:10.341Z,12.10
2018-01-08T11:10:13.014Z,11.63
2018-01-08T11:12:15.714Z,11.70
2018-01-08T11:14:19.181Z,10.73
2018-01-08T11:16:21.928Z,10.80
2018-01-08T11:18:24.607Z,10.83
2018-01-08T11:20:27.303Z,11.20
2018-01-08T11:22:30.021Z,11.43
2018-01-08T11:24:33.472Z,12.40
2018-01-08T11:26:36.151Z,12.10
2018-01-08T11:28:39.651Z,10.87
2018-01-08T11:30:42.412Z,12.60
2018-01-08T11:32:45.107Z,12.00
2018-01-08T11:34:47.835Z,13.20
2018-01-08T11:36:50.550Z,11.00
2018-01-08T11:38:53.225Z,12.00
2018-01-08T11:40:56.229Z,11.90
2018-01-08T11:42:58.909Z,11.97
2018-01-08T11:45:01.622Z,11.10
2018-01-08T11:47:04.315Z,11.63
2018-01-08T11:49:07.047Z,12.17
2018-01-08T11:51:09.791Z,11.43
2018-01-08T11:53:12.568Z,11.03
2018-01-08T11:55:15.294Z,12.23
2018-01-08T11:57:18.843Z,12.07
2018-01-08T11:59:21.562Z,12.57
2018-01-08T12:01:26.077Z,12.63
2018-01-08T12:03:29.580Z,12.30
2018-01-08T12:05:33.168Z,12.67
2018-01-08T12:07:36.671Z,11.20
2018-01-08T12:09:40.162Z,12.07
2018-01-08T12:11:43.629Z,10.83
2018-01-08T12:13:46.368Z,12.10
2018-01-08T12:15:49.067Z,11.77
2018-01-08T12:17:51.791Z,11.33
2018-01-08T12:19:55.204Z,11.30
2018-01-08T12:21:57.879Z,12.13
2018-01-08T12:24:00.602Z,12.43
2018-01-08T12:26:03.260Z,11.50
2018-01-08T12:28:07.104Z,11.00
2018-01-08T12:30:09.782Z,12.10
2018-01-08T12:32:12.501Z,13.03
2018-01-08T12:34:15.175Z,10.83
2018-01-08T12:36:17.870Z,11.60
2018-01-08T12:38:20.564Z,12.77
2018-01-08T12:40:23.230Z,11.50
2018-01-08T12:42:25.945Z,11.37
2018-01-08T12:44:28.763Z,11.83
2018-01-08T12:46:31.401Z,11.67
2018-01-08T12:48:34.104Z,12.30
2018-01-08T12:50:36.775Z,12.60
2018-01-08T12:52:39.465Z,11.40
2018-01-08T12:54:42.192Z,12.43
2018-01-08T12:56:44.918Z,12.37
2018-01-08T12:58:47.600Z,12.30
2018-01-08T13:00:50.369Z,11.47
2018-01-08T13:02:53.186Z,12.07
2018-01-08T13:04:55.896Z,12.40
2018-01-08T13:06:58.594Z,12.77
2018-01-08T13:09:02.081Z,12.30
2018-01-08T13:11:05.582Z,11.23
2018-01-08T13:13:08.993Z,10.90
2018-01-08T13:15:11.680Z,11.20
2018-01-08T13:17:14.420Z,12.33
2018-01-08T13:19:17.886Z,11.60
2018-01-08T13:21:20.554Z,10.97
2018-01-08T13:23:23.211Z,11.23
2018-01-08T13:25:25.917Z,11.10
2018-01-08T13:27:28.639Z,12.00
2018-01-08T13:29:31.316Z,10.90
2018-01-08T13:31:34.122Z,11.00
2018-01-08T13:33:36.865Z,11.23
2018-01-08T13:35:40.453Z,11.77
2018-01-08T13:37:44.902Z,11.37
2018-01-08T13:39:47.613Z,11.53
2018-01-08T13:41:50.343Z,12.10
2018-01-08T13:43:53.096Z,11.80
2018-01-08T13:45:56.642Z,12.13
2018-01-08T13:47:59.308Z,11.87
2018-01-08T13:50:02.025Z,11.63
2018-01-08T13:52:04.722Z,11.77
2018-01-08T13:54:08.176Z,11.70
2018-01-08T13:56:10.940Z,12.30
2018-01-08T13:58:13.706Z,12.30
2018-01-08T14:00:16.647Z,11.87
2018-01-08T14:02:20.164Z,11.97
2018-01-08T14:04:23.612Z,11.87
2018-01-08T14:06:27.144Z,11.97
2018-01-08T14:08:30.629Z,11.63
2018-01-08T14:10:33.350Z,11.17
2018-01-08T14:12:36.296Z,11.43
2018-01-08T14:14:39.776Z,11.60
2018-01-08T14:16:42.512Z,11.43
2018-01-08T14:18:45.225Z,12.07
2018-01-08T14:20:47.914Z,11.90
2018-01-08T14:22:50.649Z,11.10
2018-01-08T14:24:53.319Z,11.10
2018-01-08T14:26:55.992Z,13.13
2018-01-08T14:28:58.888Z,11.10
2018-01-08T14:31:01.774Z,11.40
2018-01-08T14:33:04.469Z,12.17
2018-01-08T14:35:09.777Z,12.30
2018-01-08T14:37:13.617Z,12.70
2018-01-08T14:39:16.364Z,12.33
2018-01-08T14:41:19.009Z,13.27
2018-01-08T14:43:21.702Z,13.17
2018-01-08T14:45:25.192Z,14.00
2018-01-08T14:47:27.850Z,13.40
2018-01-08T14:49:30.522Z,14.40
2018-01-08T14:51:33.676Z,13.77
2018-01-08T14:53:36.341Z,14.63
2018-01-08T14:55:39.026Z,14.50
2018-01-08T14:57:41.967Z,15.30
2018-01-08T14:59:44.672Z,14.40
2018-01-08T15:01:47.380Z,14.20
2018-01-08T15:03:50.105Z,14.07
2018-01-08T15:05:53.512Z,14.83
2018-01-08T15:07:56.960Z,15.23
2018-01-08T15:09:59.651Z,14.20
2018-01-08T15:12:02.297Z,15.27
2018-01-08T15:14:04.980Z,14.50
2018-01-08T15:16:08.796Z,14.73
2018-01-08T15:18:11.572Z,14.57
2018-01-08T15:20:14.373Z,16.10
2018-01-08T15:22:17.142Z,15.30
2018-01-08T15:24:19.870Z,14.43
2018-01-08T15:26:22.610Z,15.27
2018-01-08T15:28:26.053Z,15.50
2018-01-08T15:30:28.700Z,16.53
2018-01-08T15:32:31.609Z,15.13
2018-01-08T15:34:34.400Z,15.20
2018-01-08T15:36:37.058Z,14.37
2018-01-08T15:38:39.756Z,14.50
2018-01-08T15:40:42.496Z,13.53
2018-01-08T15:42:45.138Z,12.87
2018-01-08T15:44:47.846Z,12.90
2018-01-08T15:46:50.539Z,14.30
2018-01-08T15:48:53.201Z,14.60
2018-01-08T15:50:55.964Z,13.70
2018-01-08T15:52:59.520Z,13.17
2018-01-08T15:55:02.190Z,13.27
2018-01-08T15:57:04.852Z,13.90
2018-01-08T15:59:07.520Z,13.60
2018-01-08T16:01:10.188Z,12.73
2018-01-08T16:03:12.844Z,13.87
2018-01-08T16:05:16.311Z,14.93
2018-01-08T16:07:18.963Z,13.60
2018-01-08T16:09:22.113Z,14.40
2018-01-08T16:11:24.888Z,14.63
2018-01-08T16:13:27.885Z,15.47
2018-01-08T16:15:30.635Z,15.47
2018-01-08T16:17:34.061Z,16.23
2018-01-08T16:19:36.714Z,15.47
2018-01-08T16:21:40.152Z,17.97
2018-01-08T16:23:42.911Z,15.90
2018-01-08T16:25:45.560Z,16.30
2018-01-08T16:27:49.038Z,15.80
2018-01-08T16:29:52.550Z,16.30
2018-01-08T16:31:56.027Z,15.70
2018-01-08T16:33:58.730Z,15.80
2018-01-08T16:36:01.451Z,15.97
2018-01-08T16:38:04.202Z,16.50
2018-01-08T16:40:06.876Z,17.37
2018-01-08T16:42:09.583Z,16.03
2018-01-08T16:44:12.363Z,16.17
2018-01-08T16:46:15.901Z,16.47
2018-01-08T16:48:19.377Z,16.33
2018-01-08T16:50:22.816Z,14.77
2018-01-08T16:52:25.486Z,16.47
2018-01-08T16:54:28.246Z,15.37
2018-01-08T16:56:31.724Z,15.20
2018-01-08T16:58:34.394Z,15.10
2018-01-08T17:00:37.078Z,16.07
2018-01-08T17:02:39.732Z,15.50
2018-01-08T17:04:42.394Z,16.00
2018-01-08T17:06:45.095Z,13.93
2018-01-08T17:08:47.844Z,13.30
2018-01-08T17:10:50.509Z,15.53
2018-01-08T17:12:54.272Z,16.00
2018-01-08T17:14:57.796Z,15.80
2018-01-08T17:17:00.449Z,14.13
2018-01-08T17:19:03.887Z,15.03
2018-01-08T17:21:06.586Z,14.73
2018-01-08T17:23:09.241Z,14.33
2018-01-08T17:25:11.938Z,14.10
2018-01-08T17:27:14.594Z,14.30
2018-01-08T17:29:17.290Z,15.20
2018-01-08T17:31:19.921Z,15.37
2018-01-08T17:33:22.578Z,15.13
2018-01-08T17:35:26.101Z,15.87
2018-01-08T17:37:30.395Z,15.60
2018-01-08T17:39:33.197Z,16.30
2018-01-08T17:41:35.884Z,15.67
2018-01-08T17:43:43.216Z,16.37
2018-01-08T17:45:46.096Z,14.90
2018-01-08T17:47:49.529Z,14.70
2018-01-08T17:49:52.168Z,13.93
2018-01-08T17:51:55.604Z,14.60
2018-01-08T17:53:58.361Z,15.33
2018-01-08T17:56:01.033Z,15.60
2018-01-08T17:58:06.294Z,15.97
2018-01-08T18:00:08.950Z,14.70
2018-01-08T18:02:11.781Z,15.10
2018-01-08T18:04:14.433Z,15.63
2018-01-08T18:06:17.078Z,16.30
2018-01-08T18:08:19.902Z,15.57
2018-01-08T18:10:22.571Z,16.07
2018-01-08T18:12:25.241Z,14.50
2018-01-08T18:14:28.114Z,16.00
2018-01-08T18:16:33.442Z,16.30
2018-01-08T18:18:36.128Z,15.50
2018-01-08T18:20:38.808Z,15.77
2018-01-08T18:22:41.483Z,16.40
2018-01-08T18:24:44.367Z,15.47
2018-01-08T18:26:47.048Z,14.57
2018-01-08T18:28:49.707Z,15.70
2018-01-08T18:30:52.377Z,15.47
2018-01-08T18:32:55.054Z,15.40
2018-01-08T18:34:57.727Z,15.17
2018-01-08T18:37:00.417Z,15.40
2018-01-08T18:39:03.108Z,14.23
2018-01-08T18:41:05.790Z,16.77
2018-01-08T18:43:08.540Z,16.10
2018-01-08T18:45:11.197Z,16.93
2018-01-08T18:47:14.626Z,14.87
2018-01-08T18:49:17.269Z,14.87
2018-01-08T18:51:19.913Z,16.67
2018-01-08T18:53:23.116Z,16.00
2018-01-08T18:55:26.621Z,14.90
2018-01-08T18:57:30.171Z,15.20
2018-01-08T18:59:32.924Z,15.53
2018-01-08T19:01:35.598Z,15.63
2018-01-08T19:03:38.239Z,15.90
2018-01-08T19:05:41.675Z,15.63
2018-01-08T19:07:44.349Z,14.87
2018-01-08T19:09:47.114Z,16.33
2018-01-08T19:11:49.799Z,16.80
2018-01-08T19:13:52.565Z,16.50
2018-01-08T19:15:55.342Z,17.17
2018-01-08T19:17:58.021Z,16.53
2018-01-08T19:20:00.665Z,16.20
2018-01-08T19:22:04.096Z,16.57
2018-01-08T19:24:06.803Z,16.30
2018-01-08T19:26:09.458Z,16.90
2018-01-08T19:28:12.118Z,16.37
2018-01-08T19:30:14.816Z,15.97
2018-01-08T19:32:17.593Z,18.10
2018-01-08T19:34:20.253Z,17.40
2018-01-08T19:36:22.929Z,17.50
2018-01-08T19:38:25.590Z,17.67
2018-01-08T19:40:29.026Z,17.67
2018-01-08T19:42:31.976Z,18.40
2018-01-08T19:44:34.750Z,16.90
2018-01-08T19:46:37.495Z,18.27
2018-01-08T19:48:40.204Z,17.23
2018-01-08T19:50:42.985Z,17.33
2018-01-08T19:52:45.657Z,16.97
2018-01-08T19:54:48.302Z,18.40
2018-01-08T19:56:50.983Z,18.57
2018-01-08T19:58:53.664Z,19.20
2018-01-08T20:00:57.087Z,18.33
2018-01-08T20:02:59.775Z,19.83
2018-01-08T20:05:02.423Z,18.50
2018-01-08T20:07:06.216Z,20.80
2018-01-08T20:09:09.656Z,19.80
2018-01-08T20:11:12.439Z,18.77
2018-01-08T20:13:15.123Z,19.40
2018-01-08T20:15:18.554Z,19.47
2018-01-08T20:17:22.157Z,19.57
2018-01-08T20:19:24.869Z,19.40
2018-01-08T20:21:27.613Z,19.37
2018-01-08T20:23:31.224Z,20.37
2018-01-08T20:25:34.782Z,21.63
2018-01-08T20:27:38.957Z,21.67
2018-01-08T20:29:42.586Z,20.47
2018-01-08T20:31:45.434Z,20.73
2018-01-08T20:33:48.412Z,20.23
2018-01-08T20:35:51.118Z,20.37
2018-01-08T20:37:53.777Z,21.20
2018-01-08T20:39:56.660Z,21.63
2018-01-08T20:41:59.340Z,21.00
2018-01-08T20:44:02.112Z,21.20
2018-01-08T20:46:06.785Z,22.93
2018-01-08T20:48:10.432Z,22.17
2018-01-08T20:50:13.098Z,21.50
2018-01-08T20:52:16.046Z,21.40
2018-01-08T20:54:18.723Z,22.50
2018-01-08T20:56:22.136Z,21.00
2018-01-08T20:58:24.820Z,20.77
2018-01-08T21:00:27.488Z,21.17
2018-01-08T21:02:30.914Z,23.20
2018-01-08T21:04:33.585Z,23.20
2018-01-08T21:06:36.360Z,24.37
2018-01-08T21:08:39.036Z,24.10
2018-01-08T21:10:41.683Z,22.60
2018-01-08T21:12:45.097Z,35.27
2018-01-08T21:14:47.813Z,31.33
2018-01-08T21:16:50.495Z,35.63
2018-01-08T21:18:53.176Z,24.17
2018-01-08T21:20:55.890Z,23.20
2018-01-08T21:22:59.286Z,26.83
2018-01-08T21:25:01.995Z,33.07
2018-01-08T21:27:04.646Z,25.50
2018-01-08T21:29:07.317Z,25.63
2018-01-08T21:31:10.004Z,23.10
2018-01-08T21:33:12.672Z,22.80
2018-01-08T21:35:15.366Z,48.90
2018-01-08T21:37:18.017Z,38.93
2018-01-08T21:39:20.812Z,31.93
2018-01-08T21:41:23.488Z,32.07
2018-01-08T21:43:26.162Z,24.20
2018-01-08T21:45:28.837Z,24.40
2018-01-08T21:47:31.511Z,24.07
2018-01-08T21:49:34.156Z,23.90
2018-01-08T21:51:37.611Z,24.37
2018-01-08T21:53:40.447Z,22.23
2018-01-08T21:55:43.974Z,24.60
2018-01-08T21:57:46.665Z,23.27
2018-01-08T21:59:49.301Z,24.37
2018-01-08T22:01:51.981Z,25.27
2018-01-08T22:03:54.628Z,23.43
2018-01-08T22:05:57.299Z,24.63
2018-01-08T22:08:00.010Z,23.80
2018-01-08T22:10:02.689Z,23.93
2018-01-08T22:12:05.371Z,24.53
2018-01-08T22:14:08.031Z,23.80
2018-01-08T22:16:10.709Z,24.07
2018-01-08T22:18:13.407Z,25.27
2018-01-08T22:20:16.071Z,24.30
2018-01-08T22:22:18.753Z,23.50
2018-01-08T22:24:21.401Z,24.47
2018-01-08T22:26:24.906Z,23.20
2018-01-08T22:28:28.355Z,23.87
2018-01-08T22:30:31.021Z,22.60
2018-01-08T22:32:33.691Z,22.43
2018-01-08T22:34:36.344Z,23.33
2018-01-08T22:36:38.998Z,23.70
2018-01-08T22:38:42.526Z,23.20
2018-01-08T22:40:45.168Z,22.90
2018-01-08T22:42:48.592Z,22.77
2018-01-08T22:44:51.264Z,23.40
2018-01-08T22:46:54.029Z,23.40
2018-01-08T22:48:56.800Z,23.70
2018-01-08T22:51:00.240Z,25.30
2018-01-08T22:53:02.898Z,25.00
2018-01-08T22:55:05.553Z,24.20
2018-01-08T22:57:08.241Z,24.20
2018-01-08T22:59:10.902Z,24.23
2018-01-08T23:01:13.604Z,25.27
2018-01-08T23:03:16.398Z,22.10
2018-01-08T23:05:19.087Z,23.87
2018-01-08T23:07:21.775Z,23.07
2018-01-08T23:09:24.426Z,22.20
2018-01-08T23:11:27.110Z,23.27
2018-01-08T23:13:29.850Z,23.60
2018-01-08T23:15:32.504Z,22.83
2018-01-08T23:17:35.954Z,23.47
2018-01-08T23:19:38.614Z,22.40
2018-01-08T23:21:41.278Z,21.63
2018-01-08T23:23:43.978Z,22.70
2018-01-08T23:25:46.702Z,22.63
2018-01-08T23:27:50.134Z,22.20
2018-01-08T23:29:52.801Z,22.47
2018-01-08T23:31:55.464Z,22.53
2018-01-08T23:33:58.263Z,22.80
2018-01-08T23:36:00.964Z,21.90
2018-01-08T23:38:03.617Z,22.13
2018-01-08T23:40:06.394Z,20.80
2018-01-08T23:42:09.070Z,21.30
2018-01-08T23:44:11.731Z,20.83
2018-01-08T23:46:14.436Z,20.50
2018-01-08T23:48:17.095Z,21.20
2018-01-08T23:50:19.785Z,21.67
2018-01-08T23:52:22.572Z,20.70
2018-01-08T23:54:25.231Z,20.20
2018-01-08T23:56:27.893Z,22.30
2018-01-08T23:58:30.570Z,19.70
